sensor_id;sensor_type;location;lat;lon;timestamp;temperature;humidity
19180;DHT22;9722;48.754;8.868;2023-04-06T00:00:59;-0.50;70.60
19180;DHT22;9722;48.754;8.868;2023-04-06T00:04:19;-0.50;70.60
19180;DHT22;9722;48.754;8.868;2023-04-06T00:07:40;-0.40;70.70
19180;DHT22;9722;48.754;8.868;2023-04-06T00:11:00;-0.50;70.80
19180;DHT22;9722;48.754;8.868;2023-04-06T00:14:21;-0.50;71.20
19180;DHT22;9722;48.754;8.868;2023-04-06T00:17:41;-0.50;71.60
19180;DHT22;9722;48.754;8.868;2023-04-06T00:21:03;-0.50;71.90
19180;DHT22;9722;48.754;8.868;2023-04-06T00:24:23;-0.60;71.80
19180;DHT22;9722;48.754;8.868;2023-04-06T00:27:43;-0.60;71.80
19180;DHT22;9722;48.754;8.868;2023-04-06T00:31:04;-0.60;72.00
19180;DHT22;9722;48.754;8.868;2023-04-06T00:34:25;-0.70;72.10
19180;DHT22;9722;48.754;8.868;2023-04-06T00:37:46;-0.70;72.20
19180;DHT22;9722;48.754;8.868;2023-04-06T00:41:08;-0.70;72.30
19180;DHT22;9722;48.754;8.868;2023-04-06T00:44:28;-0.70;72.60
19180;DHT22;9722;48.754;8.868;2023-04-06T00:47:49;-0.70;72.70
19180;DHT22;9722;48.754;8.868;2023-04-06T00:51:09;-0.80;73.20
19180;DHT22;9722;48.754;8.868;2023-04-06T00:54:30;-0.80;73.20
19180;DHT22;9722;48.754;8.868;2023-04-06T00:57:51;-0.70;73.60
19180;DHT22;9722;48.754;8.868;2023-04-06T01:01:11;-0.80;73.90
19180;DHT22;9722;48.754;8.868;2023-04-06T01:04:32;-0.70;73.90
19180;DHT22;9722;48.754;8.868;2023-04-06T01:07:53;-0.80;73.90
19180;DHT22;9722;48.754;8.868;2023-04-06T01:11:13;-0.80;74.20
19180;DHT22;9722;48.754;8.868;2023-04-06T01:14:34;-0.80;74.40
19180;DHT22;9722;48.754;8.868;2023-04-06T01:17:54;-0.80;74.80
19180;DHT22;9722;48.754;8.868;2023-04-06T01:21:15;-0.80;75.10
19180;DHT22;9722;48.754;8.868;2023-04-06T01:24:36;-0.90;75.00
19180;DHT22;9722;48.754;8.868;2023-04-06T01:27:57;-0.90;75.20
19180;DHT22;9722;48.754;8.868;2023-04-06T01:31:17;-0.90;75.40
19180;DHT22;9722;48.754;8.868;2023-04-06T01:34:38;-0.90;75.70
19180;DHT22;9722;48.754;8.868;2023-04-06T01:37:58;-0.90;76.00
19180;DHT22;9722;48.754;8.868;2023-04-06T01:41:19;-0.90;76.20
19180;DHT22;9722;48.754;8.868;2023-04-06T01:44:40;-1.00;76.20
19180;DHT22;9722;48.754;8.868;2023-04-06T01:48:00;-1.00;76.30
19180;DHT22;9722;48.754;8.868;2023-04-06T01:51:21;-1.00;76.50
19180;DHT22;9722;48.754;8.868;2023-04-06T01:54:41;-1.10;76.60
19180;DHT22;9722;48.754;8.868;2023-04-06T01:58:02;-1.10;76.60
19180;DHT22;9722;48.754;8.868;2023-04-06T02:01:23;-1.10;76.90
19180;DHT22;9722;48.754;8.868;2023-04-06T02:04:43;-1.10;77.20
19180;DHT22;9722;48.754;8.868;2023-04-06T02:08:07;-1.20;77.20
19180;DHT22;9722;48.754;8.868;2023-04-06T02:11:28;-1.20;77.50
19180;DHT22;9722;48.754;8.868;2023-04-06T02:14:48;-1.20;77.60
19180;DHT22;9722;48.754;8.868;2023-04-06T02:18:09;-1.20;77.60
19180;DHT22;9722;48.754;8.868;2023-04-06T02:21:30;-1.20;77.90
19180;DHT22;9722;48.754;8.868;2023-04-06T02:24:50;-1.30;77.90
19180;DHT22;9722;48.754;8.868;2023-04-06T02:28:11;-1.30;78.90
19180;DHT22;9722;48.754;8.868;2023-04-06T02:31:31;-1.30;78.40
19180;DHT22;9722;48.754;8.868;2023-04-06T02:34:52;-1.30;78.50
19180;DHT22;9722;48.754;8.868;2023-04-06T02:38:12;-1.30;78.60
19180;DHT22;9722;48.754;8.868;2023-04-06T02:41:33;-1.30;78.80
19180;DHT22;9722;48.754;8.868;2023-04-06T02:44:53;-1.40;78.90
19180;DHT22;9722;48.754;8.868;2023-04-06T02:48:14;-1.40;79.30
19180;DHT22;9722;48.754;8.868;2023-04-06T02:51:35;-1.40;79.40
19180;DHT22;9722;48.754;8.868;2023-04-06T02:54:55;-1.50;79.40
19180;DHT22;9722;48.754;8.868;2023-04-06T02:58:16;-1.50;79.70
19180;DHT22;9722;48.754;8.868;2023-04-06T03:01:36;-1.60;79.70
19180;DHT22;9722;48.754;8.868;2023-04-06T03:04:57;-1.60;79.90
19180;DHT22;9722;48.754;8.868;2023-04-06T03:08:17;-1.60;80.10
19180;DHT22;9722;48.754;8.868;2023-04-06T03:11:38;-1.70;80.20
19180;DHT22;9722;48.754;8.868;2023-04-06T03:14:58;-1.70;80.50
19180;DHT22;9722;48.754;8.868;2023-04-06T03:18:22;-1.70;80.50
19180;DHT22;9722;48.754;8.868;2023-04-06T03:21:43;-1.70;80.80
19180;DHT22;9722;48.754;8.868;2023-04-06T03:25:04;-1.70;80.80
19180;DHT22;9722;48.754;8.868;2023-04-06T03:28:24;-1.70;80.80
19180;DHT22;9722;48.754;8.868;2023-04-06T03:31:45;-1.70;80.80
19180;DHT22;9722;48.754;8.868;2023-04-06T03:35:06;-1.80;81.10
19180;DHT22;9722;48.754;8.868;2023-04-06T03:38:27;-1.80;81.40
19180;DHT22;9722;48.754;8.868;2023-04-06T03:41:47;-1.80;82.10
19180;DHT22;9722;48.754;8.868;2023-04-06T03:45:08;-1.80;82.50
19180;DHT22;9722;48.754;8.868;2023-04-06T03:48:29;-1.70;83.00
19180;DHT22;9722;48.754;8.868;2023-04-06T03:51:49;-1.80;83.30
19180;DHT22;9722;48.754;8.868;2023-04-06T03:55:10;-1.70;83.60
19180;DHT22;9722;48.754;8.868;2023-04-06T03:58:31;-1.70;83.60
19180;DHT22;9722;48.754;8.868;2023-04-06T04:01:52;-1.70;84.00
19180;DHT22;9722;48.754;8.868;2023-04-06T04:05:12;-1.70;84.00
19180;DHT22;9722;48.754;8.868;2023-04-06T04:08:33;-1.70;83.90
19180;DHT22;9722;48.754;8.868;2023-04-06T04:11:53;-1.70;84.10
19180;DHT22;9722;48.754;8.868;2023-04-06T04:15:14;-1.70;84.20
19180;DHT22;9722;48.754;8.868;2023-04-06T04:18:34;-1.70;84.00
19180;DHT22;9722;48.754;8.868;2023-04-06T04:21:55;-1.70;84.00
19180;DHT22;9722;48.754;8.868;2023-04-06T04:25:15;-1.80;83.90
19180;DHT22;9722;48.754;8.868;2023-04-06T04:28:36;-1.80;84.00
19180;DHT22;9722;48.754;8.868;2023-04-06T04:31:56;-1.80;83.90
19180;DHT22;9722;48.754;8.868;2023-04-06T04:35:17;-1.80;83.90
19180;DHT22;9722;48.754;8.868;2023-04-06T04:38:37;-1.80;84.00
19180;DHT22;9722;48.754;8.868;2023-04-06T04:41:58;-1.80;84.20
19180;DHT22;9722;48.754;8.868;2023-04-06T04:45:18;-1.80;84.40
19180;DHT22;9722;48.754;8.868;2023-04-06T04:48:39;-1.80;84.50
19180;DHT22;9722;48.754;8.868;2023-04-06T04:52:00;-1.80;84.50
19180;DHT22;9722;48.754;8.868;2023-04-06T04:55:20;-1.80;84.50
19180;DHT22;9722;48.754;8.868;2023-04-06T04:58:41;-1.80;84.50
19180;DHT22;9722;48.754;8.868;2023-04-06T05:02:01;-1.90;84.40
19180;DHT22;9722;48.754;8.868;2023-04-06T05:05:22;-1.90;84.40
19180;DHT22;9722;48.754;8.868;2023-04-06T05:08:42;-1.80;84.80
19180;DHT22;9722;48.754;8.868;2023-04-06T05:12:03;-1.90;84.80
19180;DHT22;9722;48.754;8.868;2023-04-06T05:15:23;-1.90;84.90
19180;DHT22;9722;48.754;8.868;2023-04-06T05:18:44;-1.90;85.00
19180;DHT22;9722;48.754;8.868;2023-04-06T05:22:04;-1.90;85.20
19180;DHT22;9722;48.754;8.868;2023-04-06T05:25:25;-1.90;85.40
19180;DHT22;9722;48.754;8.868;2023-04-06T05:28:46;-1.80;85.50
19180;DHT22;9722;48.754;8.868;2023-04-06T05:32:06;-1.80;85.60
19180;DHT22;9722;48.754;8.868;2023-04-06T05:35:27;-1.80;85.70
19180;DHT22;9722;48.754;8.868;2023-04-06T05:38:47;-1.70;85.50
19180;DHT22;9722;48.754;8.868;2023-04-06T05:42:08;-1.60;85.50
19180;DHT22;9722;48.754;8.868;2023-04-06T05:45:29;-1.60;85.40
19180;DHT22;9722;48.754;8.868;2023-04-06T05:48:50;-1.50;85.50
19180;DHT22;9722;48.754;8.868;2023-04-06T05:52:10;-1.30;85.50
19180;DHT22;9722;48.754;8.868;2023-04-06T05:55:31;-1.20;85.50
19180;DHT22;9722;48.754;8.868;2023-04-06T05:58:51;-0.80;85.50
19180;DHT22;9722;48.754;8.868;2023-04-06T06:02:12;-0.30;84.40
19180;DHT22;9722;48.754;8.868;2023-04-06T06:05:32;0.20;82.80
19180;DHT22;9722;48.754;8.868;2023-04-06T06:08:53;0.70;81.50
19180;DHT22;9722;48.754;8.868;2023-04-06T06:12:13;1.10;79.70
19180;DHT22;9722;48.754;8.868;2023-04-06T06:15:34;1.50;78.30
19180;DHT22;9722;48.754;8.868;2023-04-06T06:18:55;1.90;76.50
19180;DHT22;9722;48.754;8.868;2023-04-06T06:22:15;2.20;75.20
19180;DHT22;9722;48.754;8.868;2023-04-06T06:25:36;2.50;73.70
19180;DHT22;9722;48.754;8.868;2023-04-06T06:28:56;2.80;72.30
19180;DHT22;9722;48.754;8.868;2023-04-06T06:32:17;3.20;71.10
19180;DHT22;9722;48.754;8.868;2023-04-06T06:35:38;3.50;69.60
19180;DHT22;9722;48.754;8.868;2023-04-06T06:38:58;3.90;68.00
19180;DHT22;9722;48.754;8.868;2023-04-06T06:42:20;4.30;66.60
19180;DHT22;9722;48.754;8.868;2023-04-06T06:45:41;4.60;65.10
19180;DHT22;9722;48.754;8.868;2023-04-06T06:49:02;5.00;64.00
19180;DHT22;9722;48.754;8.868;2023-04-06T06:52:23;5.30;62.80
19180;DHT22;9722;48.754;8.868;2023-04-06T06:55:44;5.70;61.70
19180;DHT22;9722;48.754;8.868;2023-04-06T06:59:05;6.00;60.80
19180;DHT22;9722;48.754;8.868;2023-04-06T07:02:26;6.40;59.60
19180;DHT22;9722;48.754;8.868;2023-04-06T07:05:46;6.80;58.90
19180;DHT22;9722;48.754;8.868;2023-04-06T07:09:13;7.30;58.00
19180;DHT22;9722;48.754;8.868;2023-04-06T07:12:33;7.80;56.90
19180;DHT22;9722;48.754;8.868;2023-04-06T07:15:54;8.30;56.30
19180;DHT22;9722;48.754;8.868;2023-04-06T07:19:14;8.90;55.50
19180;DHT22;9722;48.754;8.868;2023-04-06T07:22:34;9.50;54.30
19180;DHT22;9722;48.754;8.868;2023-04-06T07:25:55;9.90;52.90
19180;DHT22;9722;48.754;8.868;2023-04-06T07:29:16;10.20;50.50
19180;DHT22;9722;48.754;8.868;2023-04-06T07:32:38;10.40;49.70
19180;DHT22;9722;48.754;8.868;2023-04-06T07:35:58;10.70;49.50
19180;DHT22;9722;48.754;8.868;2023-04-06T07:39:19;11.10;49.30
19180;DHT22;9722;48.754;8.868;2023-04-06T07:42:40;11.60;48.10
19180;DHT22;9722;48.754;8.868;2023-04-06T07:46:00;12.00;47.50
19180;DHT22;9722;48.754;8.868;2023-04-06T07:49:21;12.70;46.90
19180;DHT22;9722;48.754;8.868;2023-04-06T07:52:43;13.20;45.60
19180;DHT22;9722;48.754;8.868;2023-04-06T07:56:03;13.70;45.10
19180;DHT22;9722;48.754;8.868;2023-04-06T07:59:24;14.20;44.20
19180;DHT22;9722;48.754;8.868;2023-04-06T08:02:44;14.60;43.60
19180;DHT22;9722;48.754;8.868;2023-04-06T08:06:05;15.10;42.30
19180;DHT22;9722;48.754;8.868;2023-04-06T08:09:26;15.40;41.60
19180;DHT22;9722;48.754;8.868;2023-04-06T08:12:47;15.80;40.70
19180;DHT22;9722;48.754;8.868;2023-04-06T08:16:07;16.00;39.70
19180;DHT22;9722;48.754;8.868;2023-04-06T08:19:28;16.30;38.90
19180;DHT22;9722;48.754;8.868;2023-04-06T08:22:48;16.70;37.60
19180;DHT22;9722;48.754;8.868;2023-04-06T08:26:09;17.20;36.70
19180;DHT22;9722;48.754;8.868;2023-04-06T08:29:29;17.70;36.20
19180;DHT22;9722;48.754;8.868;2023-04-06T08:32:50;18.20;35.90
19180;DHT22;9722;48.754;8.868;2023-04-06T08:36:13;19.00;35.40
19180;DHT22;9722;48.754;8.868;2023-04-06T08:39:33;19.60;34.00
19180;DHT22;9722;48.754;8.868;2023-04-06T08:42:55;20.20;33.00
19180;DHT22;9722;48.754;8.868;2023-04-06T08:46:17;20.70;32.40
19180;DHT22;9722;48.754;8.868;2023-04-06T08:49:38;21.30;31.70
19180;DHT22;9722;48.754;8.868;2023-04-06T08:52:59;21.90;31.30
19180;DHT22;9722;48.754;8.868;2023-04-06T08:56:22;22.50;30.30
19180;DHT22;9722;48.754;8.868;2023-04-06T08:59:42;22.90;29.90
19180;DHT22;9722;48.754;8.868;2023-04-06T09:03:05;23.40;29.00
19180;DHT22;9722;48.754;8.868;2023-04-06T09:06:27;23.80;28.70
19180;DHT22;9722;48.754;8.868;2023-04-06T09:09:50;24.00;28.50
19180;DHT22;9722;48.754;8.868;2023-04-06T09:13:11;24.10;27.70
19180;DHT22;9722;48.754;8.868;2023-04-06T09:16:39;24.20;26.80
19180;DHT22;9722;48.754;8.868;2023-04-06T09:20:02;24.10;26.70
19180;DHT22;9722;48.754;8.868;2023-04-06T09:23:23;23.90;26.00
19180;DHT22;9722;48.754;8.868;2023-04-06T09:26:45;23.70;26.40
19180;DHT22;9722;48.754;8.868;2023-04-06T09:30:08;23.90;25.80
19180;DHT22;9722;48.754;8.868;2023-04-06T09:33:33;24.20;26.50
19180;DHT22;9722;48.754;8.868;2023-04-06T09:36:58;24.60;26.00
19180;DHT22;9722;48.754;8.868;2023-04-06T09:40:19;24.80;25.70
19180;DHT22;9722;48.754;8.868;2023-04-06T09:43:41;25.00;25.70
19180;DHT22;9722;48.754;8.868;2023-04-06T09:47:05;25.20;24.60
19180;DHT22;9722;48.754;8.868;2023-04-06T09:50:26;25.00;24.50
19180;DHT22;9722;48.754;8.868;2023-04-06T09:53:51;25.10;24.30
19180;DHT22;9722;48.754;8.868;2023-04-06T10:01:06;25.40;23.40
19180;DHT22;9722;48.754;8.868;2023-04-06T10:04:39;25.60;23.90
19180;DHT22;9722;48.754;8.868;2023-04-06T10:08:10;26.00;24.20
19180;DHT22;9722;48.754;8.868;2023-04-06T10:11:31;26.50;24.00
19180;DHT22;9722;48.754;8.868;2023-04-06T10:14:53;27.00;23.30
19180;DHT22;9722;48.754;8.868;2023-04-06T10:18:14;27.50;23.70
19180;DHT22;9722;48.754;8.868;2023-04-06T10:21:36;28.00;23.20
19180;DHT22;9722;48.754;8.868;2023-04-06T10:24:58;28.30;22.50
19180;DHT22;9722;48.754;8.868;2023-04-06T10:28:19;28.20;22.10
19180;DHT22;9722;48.754;8.868;2023-04-06T10:31:42;27.80;21.60
19180;DHT22;9722;48.754;8.868;2023-04-06T10:35:10;27.30;22.30
19180;DHT22;9722;48.754;8.868;2023-04-06T10:38:35;27.40;22.80
19180;DHT22;9722;48.754;8.868;2023-04-06T10:42:06;27.90;22.60
19180;DHT22;9722;48.754;8.868;2023-04-06T10:45:31;28.60;22.40
19180;DHT22;9722;48.754;8.868;2023-04-06T10:48:51;29.40;22.00
19180;DHT22;9722;48.754;8.868;2023-04-06T10:52:12;30.20;21.60
19180;DHT22;9722;48.754;8.868;2023-04-06T10:55:34;30.60;20.80
19180;DHT22;9722;48.754;8.868;2023-04-06T10:58:55;30.40;20.20
19180;DHT22;9722;48.754;8.868;2023-04-06T11:02:20;30.10;20.30
19180;DHT22;9722;48.754;8.868;2023-04-06T11:05:45;29.70;20.30
19180;DHT22;9722;48.754;8.868;2023-04-06T11:09:05;29.90;20.90
19180;DHT22;9722;48.754;8.868;2023-04-06T11:12:28;30.30;21.00
19180;DHT22;9722;48.754;8.868;2023-04-06T11:15:49;31.00;20.80
19180;DHT22;9722;48.754;8.868;2023-04-06T11:19:10;31.40;21.20
19180;DHT22;9722;48.754;8.868;2023-04-06T11:22:31;31.70;20.60
19180;DHT22;9722;48.754;8.868;2023-04-06T11:25:52;32.10;20.60
19180;DHT22;9722;48.754;8.868;2023-04-06T11:29:13;32.60;20.60
19180;DHT22;9722;48.754;8.868;2023-04-06T11:32:41;33.10;20.50
19180;DHT22;9722;48.754;8.868;2023-04-06T11:36:02;33.60;20.30
19180;DHT22;9722;48.754;8.868;2023-04-06T11:39:24;33.90;19.50
19180;DHT22;9722;48.754;8.868;2023-04-06T11:42:52;33.80;19.40
19180;DHT22;9722;48.754;8.868;2023-04-06T11:46:17;33.40;19.30
19180;DHT22;9722;48.754;8.868;2023-04-06T11:49:41;33.20;19.30
19180;DHT22;9722;48.754;8.868;2023-04-06T11:53:02;32.90;18.90
19180;DHT22;9722;48.754;8.868;2023-04-06T11:56:29;32.20;19.30
19180;DHT22;9722;48.754;8.868;2023-04-06T11:59:50;32.10;19.70
19180;DHT22;9722;48.754;8.868;2023-04-06T12:03:12;32.30;19.90
19180;DHT22;9722;48.754;8.868;2023-04-06T12:06:32;32.60;19.60
19180;DHT22;9722;48.754;8.868;2023-04-06T12:09:53;33.10;19.30
19180;DHT22;9722;48.754;8.868;2023-04-06T12:13:13;33.20;18.40
19180;DHT22;9722;48.754;8.868;2023-04-06T12:16:34;32.30;18.20
19180;DHT22;9722;48.754;8.868;2023-04-06T12:19:55;31.30;18.90
19180;DHT22;9722;48.754;8.868;2023-04-06T12:23:15;31.20;18.90
19180;DHT22;9722;48.754;8.868;2023-04-06T12:26:36;31.00;18.80
19180;DHT22;9722;48.754;8.868;2023-04-06T12:29:57;30.50;18.80
19180;DHT22;9722;48.754;8.868;2023-04-06T12:33:18;30.30;19.00
19180;DHT22;9722;48.754;8.868;2023-04-06T12:36:38;30.30;19.60
19180;DHT22;9722;48.754;8.868;2023-04-06T12:39:59;30.70;19.30
19180;DHT22;9722;48.754;8.868;2023-04-06T12:43:20;31.30;19.10
19180;DHT22;9722;48.754;8.868;2023-04-06T12:46:41;31.90;19.20
19180;DHT22;9722;48.754;8.868;2023-04-06T12:50:04;32.20;19.40
19180;DHT22;9722;48.754;8.868;2023-04-06T12:53:26;32.30;19.50
19180;DHT22;9722;48.754;8.868;2023-04-06T12:56:47;32.30;18.90
19180;DHT22;9722;48.754;8.868;2023-04-06T13:00:08;32.00;19.20
19180;DHT22;9722;48.754;8.868;2023-04-06T13:03:28;31.70;19.30
19180;DHT22;9722;48.754;8.868;2023-04-06T13:06:50;31.50;19.70
19180;DHT22;9722;48.754;8.868;2023-04-06T13:10:10;31.80;20.00
19180;DHT22;9722;48.754;8.868;2023-04-06T13:13:31;32.10;19.60
19180;DHT22;9722;48.754;8.868;2023-04-06T13:16:51;31.60;19.50
19180;DHT22;9722;48.754;8.868;2023-04-06T13:20:12;30.80;19.90
19180;DHT22;9722;48.754;8.868;2023-04-06T13:23:32;30.40;20.10
19180;DHT22;9722;48.754;8.868;2023-04-06T13:26:53;30.10;19.80
19180;DHT22;9722;48.754;8.868;2023-04-06T13:30:14;29.20;20.20
19180;DHT22;9722;48.754;8.868;2023-04-06T13:33:35;28.20;20.70
19180;DHT22;9722;48.754;8.868;2023-04-06T13:36:56;27.30;21.10
19180;DHT22;9722;48.754;8.868;2023-04-06T13:40:16;26.30;21.60
19180;DHT22;9722;48.754;8.868;2023-04-06T13:43:37;25.40;22.70
19180;DHT22;9722;48.754;8.868;2023-04-06T13:46:57;24.90;22.70
19180;DHT22;9722;48.754;8.868;2023-04-06T13:50:18;25.10;23.00
19180;DHT22;9722;48.754;8.868;2023-04-06T13:53:39;25.70;22.80
19180;DHT22;9722;48.754;8.868;2023-04-06T13:56:59;26.00;22.70
19180;DHT22;9722;48.754;8.868;2023-04-06T14:00:21;26.30;22.90
19180;DHT22;9722;48.754;8.868;2023-04-06T14:03:41;26.30;22.60
19180;DHT22;9722;48.754;8.868;2023-04-06T14:07:03;26.40;22.60
19180;DHT22;9722;48.754;8.868;2023-04-06T14:10:27;26.00;22.80
19180;DHT22;9722;48.754;8.868;2023-04-06T14:13:47;25.20;22.80
19180;DHT22;9722;48.754;8.868;2023-04-06T14:17:08;24.20;23.20
19180;DHT22;9722;48.754;8.868;2023-04-06T14:20:31;23.30;23.70
19180;DHT22;9722;48.754;8.868;2023-04-06T14:23:51;22.40;24.20
19180;DHT22;9722;48.754;8.868;2023-04-06T14:27:12;21.70;24.70
19180;DHT22;9722;48.754;8.868;2023-04-06T14:30:34;21.10;25.20
19180;DHT22;9722;48.754;8.868;2023-04-06T14:33:54;20.70;25.50
19180;DHT22;9722;48.754;8.868;2023-04-06T14:37:15;20.30;26.00
19180;DHT22;9722;48.754;8.868;2023-04-06T14:40:37;19.80;26.30
19180;DHT22;9722;48.754;8.868;2023-04-06T14:43:58;19.40;26.50
19180;DHT22;9722;48.754;8.868;2023-04-06T14:47:19;19.00;26.80
19180;DHT22;9722;48.754;8.868;2023-04-06T14:50:41;18.70;27.30
19180;DHT22;9722;48.754;8.868;2023-04-06T14:54:06;18.40;27.90
19180;DHT22;9722;48.754;8.868;2023-04-06T14:57:27;18.10;28.30
19180;DHT22;9722;48.754;8.868;2023-04-06T15:00:48;17.90;28.60
19180;DHT22;9722;48.754;8.868;2023-04-06T15:04:08;17.60;28.90
19180;DHT22;9722;48.754;8.868;2023-04-06T15:07:29;17.30;29.20
19180;DHT22;9722;48.754;8.868;2023-04-06T15:10:50;17.10;29.60
19180;DHT22;9722;48.754;8.868;2023-04-06T15:14:11;16.90;29.80
19180;DHT22;9722;48.754;8.868;2023-04-06T15:17:31;16.70;30.10
19180;DHT22;9722;48.754;8.868;2023-04-06T15:20:52;16.60;30.20
19180;DHT22;9722;48.754;8.868;2023-04-06T15:24:13;16.50;30.60
19180;DHT22;9722;48.754;8.868;2023-04-06T15:27:33;16.40;30.60
19180;DHT22;9722;48.754;8.868;2023-04-06T15:30:54;16.40;31.00
19180;DHT22;9722;48.754;8.868;2023-04-06T15:34:14;16.20;31.20
19180;DHT22;9722;48.754;8.868;2023-04-06T15:37:36;16.10;31.40
19180;DHT22;9722;48.754;8.868;2023-04-06T15:40:57;16.00;31.70
19180;DHT22;9722;48.754;8.868;2023-04-06T15:44:18;15.90;31.80
19180;DHT22;9722;48.754;8.868;2023-04-06T15:47:44;15.80;32.10
19180;DHT22;9722;48.754;8.868;2023-04-06T15:51:05;15.70;32.40
19180;DHT22;9722;48.754;8.868;2023-04-06T15:54:25;15.60;32.70
19180;DHT22;9722;48.754;8.868;2023-04-06T15:57:46;15.50;32.60
19180;DHT22;9722;48.754;8.868;2023-04-06T16:01:14;15.40;32.60
19180;DHT22;9722;48.754;8.868;2023-04-06T16:04:35;15.30;33.20
19180;DHT22;9722;48.754;8.868;2023-04-06T16:07:57;15.20;33.20
19180;DHT22;9722;48.754;8.868;2023-04-06T16:11:18;15.10;33.40
19180;DHT22;9722;48.754;8.868;2023-04-06T16:14:39;15.00;33.60
19180;DHT22;9722;48.754;8.868;2023-04-06T16:18:00;14.80;33.60
19180;DHT22;9722;48.754;8.868;2023-04-06T16:21:22;14.70;33.90
19180;DHT22;9722;48.754;8.868;2023-04-06T16:24:43;14.60;34.20
19180;DHT22;9722;48.754;8.868;2023-04-06T16:28:04;14.50;34.10
19180;DHT22;9722;48.754;8.868;2023-04-06T16:31:24;14.40;35.00
19180;DHT22;9722;48.754;8.868;2023-04-06T16:34:45;14.30;34.40
19180;DHT22;9722;48.754;8.868;2023-04-06T16:38:06;14.10;33.80
19180;DHT22;9722;48.754;8.868;2023-04-06T16:41:27;14.00;32.90
19180;DHT22;9722;48.754;8.868;2023-04-06T16:44:47;13.90;32.10
19180;DHT22;9722;48.754;8.868;2023-04-06T16:48:08;13.80;31.50
19180;DHT22;9722;48.754;8.868;2023-04-06T16:51:29;13.60;31.10
19180;DHT22;9722;48.754;8.868;2023-04-06T16:54:51;13.60;31.40
19180;DHT22;9722;48.754;8.868;2023-04-06T16:58:12;13.50;31.80
19180;DHT22;9722;48.754;8.868;2023-04-06T17:01:32;13.40;32.10
19180;DHT22;9722;48.754;8.868;2023-04-06T17:04:53;13.30;32.20
19180;DHT22;9722;48.754;8.868;2023-04-06T17:08:13;13.20;32.40
19180;DHT22;9722;48.754;8.868;2023-04-06T17:11:34;13.10;32.70
19180;DHT22;9722;48.754;8.868;2023-04-06T17:14:56;13.00;33.00
19180;DHT22;9722;48.754;8.868;2023-04-06T17:18:18;12.90;33.50
19180;DHT22;9722;48.754;8.868;2023-04-06T17:21:40;12.80;33.80
19180;DHT22;9722;48.754;8.868;2023-04-06T17:25:01;12.70;34.00
19180;DHT22;9722;48.754;8.868;2023-04-06T17:28:22;12.60;34.10
19180;DHT22;9722;48.754;8.868;2023-04-06T17:31:43;12.50;34.50
19180;DHT22;9722;48.754;8.868;2023-04-06T17:35:05;12.40;34.70
19180;DHT22;9722;48.754;8.868;2023-04-06T17:38:26;12.30;34.80
19180;DHT22;9722;48.754;8.868;2023-04-06T17:41:46;12.20;34.90
19180;DHT22;9722;48.754;8.868;2023-04-06T17:45:07;12.20;35.00
19180;DHT22;9722;48.754;8.868;2023-04-06T17:48:27;12.10;35.10
19180;DHT22;9722;48.754;8.868;2023-04-06T17:51:49;12.00;35.40
19180;DHT22;9722;48.754;8.868;2023-04-06T17:55:09;11.90;35.60
19180;DHT22;9722;48.754;8.868;2023-04-06T17:58:30;11.80;35.80
19180;DHT22;9722;48.754;8.868;2023-04-06T18:01:51;11.60;36.00
19180;DHT22;9722;48.754;8.868;2023-04-06T18:05:11;11.60;36.30
19180;DHT22;9722;48.754;8.868;2023-04-06T18:08:32;11.50;36.70
19180;DHT22;9722;48.754;8.868;2023-04-06T18:11:52;11.40;37.00
19180;DHT22;9722;48.754;8.868;2023-04-06T18:15:14;11.40;37.40
19180;DHT22;9722;48.754;8.868;2023-04-06T18:18:36;11.30;37.40
19180;DHT22;9722;48.754;8.868;2023-04-06T18:21:58;11.20;37.50
19180;DHT22;9722;48.754;8.868;2023-04-06T18:25:18;11.20;37.80
19180;DHT22;9722;48.754;8.868;2023-04-06T18:28:39;11.10;37.90
19180;DHT22;9722;48.754;8.868;2023-04-06T18:31:59;11.10;38.40
19180;DHT22;9722;48.754;8.868;2023-04-06T18:35:20;11.00;38.70
19180;DHT22;9722;48.754;8.868;2023-04-06T18:38:45;10.90;38.90
19180;DHT22;9722;48.754;8.868;2023-04-06T18:42:07;10.90;39.30
19180;DHT22;9722;48.754;8.868;2023-04-06T18:45:27;10.80;39.50
19180;DHT22;9722;48.754;8.868;2023-04-06T18:48:48;10.70;40.10
19180;DHT22;9722;48.754;8.868;2023-04-06T18:52:08;10.70;41.20
19180;DHT22;9722;48.754;8.868;2023-04-06T18:55:31;10.70;40.90
19180;DHT22;9722;48.754;8.868;2023-04-06T18:58:52;10.60;41.50
19180;DHT22;9722;48.754;8.868;2023-04-06T19:02:13;10.50;42.10
19180;DHT22;9722;48.754;8.868;2023-04-06T19:05:34;10.50;42.50
19180;DHT22;9722;48.754;8.868;2023-04-06T19:08:55;10.40;42.90
19180;DHT22;9722;48.754;8.868;2023-04-06T19:12:15;10.30;43.30
19180;DHT22;9722;48.754;8.868;2023-04-06T19:15:39;10.30;43.30
19180;DHT22;9722;48.754;8.868;2023-04-06T19:19:01;10.30;43.60
19180;DHT22;9722;48.754;8.868;2023-04-06T19:22:21;10.40;46.00
19180;DHT22;9722;48.754;8.868;2023-04-06T19:25:41;10.50;44.90
19180;DHT22;9722;48.754;8.868;2023-04-06T19:29:02;10.50;44.50
19180;DHT22;9722;48.754;8.868;2023-04-06T19:32:23;10.40;44.70
19180;DHT22;9722;48.754;8.868;2023-04-06T19:35:44;10.30;44.90
19180;DHT22;9722;48.754;8.868;2023-04-06T19:39:05;10.20;45.50
19180;DHT22;9722;48.754;8.868;2023-04-06T19:42:26;10.10;45.80
19180;DHT22;9722;48.754;8.868;2023-04-06T19:45:46;10.00;46.00
19180;DHT22;9722;48.754;8.868;2023-04-06T19:49:07;10.00;46.80
19180;DHT22;9722;48.754;8.868;2023-04-06T19:52:27;9.90;47.80
19180;DHT22;9722;48.754;8.868;2023-04-06T19:55:48;9.80;48.20
19180;DHT22;9722;48.754;8.868;2023-04-06T19:59:08;9.70;48.40
19180;DHT22;9722;48.754;8.868;2023-04-06T20:02:30;9.70;48.80
19180;DHT22;9722;48.754;8.868;2023-04-06T20:05:50;9.70;49.60
19180;DHT22;9722;48.754;8.868;2023-04-06T20:09:11;9.60;50.10
19180;DHT22;9722;48.754;8.868;2023-04-06T20:12:32;9.50;50.70
19180;DHT22;9722;48.754;8.868;2023-04-06T20:15:52;9.40;50.90
19180;DHT22;9722;48.754;8.868;2023-04-06T20:19:13;9.40;51.60
19180;DHT22;9722;48.754;8.868;2023-04-06T20:22:33;9.30;52.00
19180;DHT22;9722;48.754;8.868;2023-04-06T20:25:54;9.20;52.70
19180;DHT22;9722;48.754;8.868;2023-04-06T20:29:14;9.20;54.00
19180;DHT22;9722;48.754;8.868;2023-04-06T20:32:35;9.00;54.60
19180;DHT22;9722;48.754;8.868;2023-04-06T20:35:57;8.90;55.50
19180;DHT22;9722;48.754;8.868;2023-04-06T20:39:17;8.70;56.40
19180;DHT22;9722;48.754;8.868;2023-04-06T20:42:38;8.60;56.90
19180;DHT22;9722;48.754;8.868;2023-04-06T20:45:59;8.50;58.00
19180;DHT22;9722;48.754;8.868;2023-04-06T20:49:21;8.40;59.00
19180;DHT22;9722;48.754;8.868;2023-04-06T20:52:43;8.20;60.10
19180;DHT22;9722;48.754;8.868;2023-04-06T20:56:03;8.00;61.70
19180;DHT22;9722;48.754;8.868;2023-04-06T20:59:25;7.80;63.80
19180;DHT22;9722;48.754;8.868;2023-04-06T21:02:46;7.60;64.70
19180;DHT22;9722;48.754;8.868;2023-04-06T21:06:07;7.40;66.30
19180;DHT22;9722;48.754;8.868;2023-04-06T21:09:28;7.30;67.40
19180;DHT22;9722;48.754;8.868;2023-04-06T21:12:49;7.20;68.10
19180;DHT22;9722;48.754;8.868;2023-04-06T21:16:10;7.10;69.80
19180;DHT22;9722;48.754;8.868;2023-04-06T21:19:30;7.00;70.20
19180;DHT22;9722;48.754;8.868;2023-04-06T21:22:51;7.00;71.20
19180;DHT22;9722;48.754;8.868;2023-04-06T21:26:12;6.90;71.60
19180;DHT22;9722;48.754;8.868;2023-04-06T21:29:32;6.90;72.30
19180;DHT22;9722;48.754;8.868;2023-04-06T21:32:53;6.90;73.20
19180;DHT22;9722;48.754;8.868;2023-04-06T21:36:13;6.90;74.40